Time;durP1;ratioP1;P1;durP2;ratioP2;P2;SDS_P1;SDS_P2;PMS_P1;PMS_P2;Temp;Humidity;BMP_temperature;BMP_pressure;BME280_temperature;BME280_humidity;BME280_pressure;Samples;Min_cycle;Max_cycle;Signal;HPM_P1;HPM_P2
2022/08/01 00:03:43;;;;;;;3.45;1.80;;;26.40;59.30;;;;;;10393246;28;20065;-50
2022/08/01 00:08:45;;;;;;;3.53;1.98;;;26.50;59.30;;;;;;10392724;28;20401;-47
2022/08/01 00:13:48;;;;;;;2.17;1.55;;;26.50;59.30;;;;;;10393002;28;20043;-53
2022/08/01 00:18:50;;;;;;;4.65;2.28;;;26.50;59.10;;;;;;10389290;28;20037;-50
2022/08/01 00:23:52;;;;;;;1.92;1.60;;;26.40;59.40;;;;;;10389236;28;20128;-48
2022/08/01 00:28:55;;;;;;;1.70;1.27;;;26.40;59.40;;;;;;10392425;28;20053;-50
2022/08/01 00:33:57;;;;;;;4.07;1.10;;;26.40;59.50;;;;;;10392009;28;20162;-52
2022/08/01 00:38:59;;;;;;;2.17;1.38;;;26.30;59.50;;;;;;10388280;28;20037;-54
2022/08/01 00:44:05;;;;;;;4.13;1.52;;;26.30;59.40;;;;;;10392916;28;20061;-52
2022/08/01 00:49:08;;;;;;;2.47;1.60;;;26.30;59.20;;;;;;10396765;28;20131;-48
2022/08/01 00:54:10;;;;;;;1.58;1.25;;;26.30;59.20;;;;;;10398791;28;20089;-52
2022/08/01 00:59:17;;;;;;;2.50;0.93;;;26.30;59.70;;;;;;10399005;28;20119;-50
2022/08/01 01:04:19;;;;;;;1.52;1.00;;;26.30;60.30;;;;;;10398397;28;20168;-51
2022/08/01 01:09:33;;;;;;;1.27;1.00;;;26.30;59.50;;;;;;10394865;28;20671;-49
2022/08/01 01:14:44;;;;;;;1.85;1.20;;;26.30;59.60;;;;;;10395161;28;20048;-51
2022/08/01 01:19:48;;;;;;;1.90;1.27;;;26.30;59.80;;;;;;10398436;28;20037;-50
2022/08/01 01:25:05;;;;;;;2.88;1.48;;;26.20;59.60;;;;;;10398370;28;20136;-52
2022/08/01 01:30:09;;;;;;;1.20;1.10;;;26.20;59.60;;;;;;10398419;28;20131;-54
2022/08/01 01:35:15;;;;;;;0.73;0.73;;;26.20;59.40;;;;;;10397614;28;20085;-49
2022/08/01 01:40:18;;;;;;;1.65;0.90;;;26.30;59.60;;;;;;10396935;28;20092;-49
2022/08/01 01:45:24;;;;;;;1.42;0.80;;;26.20;59.80;;;;;;10396317;28;20149;-53
2022/08/01 01:50:28;;;;;;;1.40;0.75;;;26.20;59.60;;;;;;10397598;28;20425;-50
2022/08/01 01:55:30;;;;;;;1.08;0.73;;;26.20;59.50;;;;;;10397376;28;20041;-49
2022/08/01 02:00:35;;;;;;;0.70;0.70;;;26.20;59.50;;;;;;10395533;28;20056;-53
2022/08/01 02:05:39;;;;;;;2.25;0.85;;;26.20;59.70;;;;;;10396485;28;20053;-52
2022/08/01 02:11:17;;;;;;;1.63;0.95;;;26.20;59.50;;;;;;10395035;28;20053;-50
2022/08/01 02:16:05;;;;;;;2.15;0.80;;;26.20;59.70;;;;;;10394705;28;20050;-52
2022/08/01 02:21:11;;;;;;;0.68;0.65;;;26.10;59.70;;;;;;10395931;28;20042;-52
2022/08/01 02:26:16;;;;;;;1.13;0.63;;;26.10;59.60;;;;;;10394777;28;20057;-49
2022/08/01 02:31:23;;;;;;;1.10;0.75;;;26.10;59.80;;;;;;10396609;28;20049;-54
2022/08/01 02:36:28;;;;;;;0.60;0.57;;;26.10;59.70;;;;;;10396297;28;20053;-53
2022/08/01 02:41:33;;;;;;;1.67;0.65;;;26.10;59.40;;;;;;10395039;28;20046;-48
2022/08/01 02:46:40;;;;;;;0.63;0.40;;;26.10;59.70;;;;;;10395655;28;20056;-53
2022/08/01 02:51:43;;;;;;;0.90;0.70;;;26.10;59.70;;;;;;10394799;28;20119;-49
2022/08/01 02:56:47;;;;;;;1.00;0.40;;;26.10;59.60;;;;;;10393000;28;20134;-52
2022/08/01 03:01:52;;;;;;;0.60;0.40;;;26.20;59.90;;;;;;10394638;28;20045;-49
2022/08/01 03:06:58;;;;;;;0.77;0.40;;;26.10;59.80;;;;;;10393487;28;20129;-49
2022/08/01 03:12:03;;;;;;;0.98;0.43;;;26.10;59.80;;;;;;10395336;28;20549;-52
2022/08/01 03:17:09;;;;;;;0.85;0.60;;;26.10;59.60;;;;;;10394639;28;20063;-54
2022/08/01 03:22:13;;;;;;;0.63;0.38;;;26.10;60.10;;;;;;10395374;28;20134;-52
2022/08/01 03:27:15;;;;;;;0.85;0.40;;;26.00;59.70;;;;;;10394764;28;20048;-51
2022/08/01 03:32:20;;;;;;;0.73;0.50;;;26.00;59.60;;;;;;10394891;28;20159;-50
2022/08/01 03:37:25;;;;;;;0.80;0.50;;;26.10;59.50;;;;;;10394045;28;20069;-49
2022/08/01 03:42:33;;;;;;;1.00;0.40;;;26.00;59.40;;;;;;10392371;28;20045;-50
2022/08/01 03:47:38;;;;;;;0.63;0.30;;;26.00;59.50;;;;;;10393345;28;20575;-50
2022/08/01 03:52:44;;;;;;;0.47;0.30;;;26.00;59.40;;;;;;10393511;28;20451;-53
2022/08/01 03:57:47;;;;;;;1.13;0.30;;;26.00;59.40;;;;;;10393124;28;20136;-52
2022/08/01 04:02:50;;;;;;;0.85;0.30;;;26.00;59.50;;;;;;10391840;28;20158;-47
2022/08/01 04:07:55;;;;;;;0.38;0.35;;;26.00;59.40;;;;;;10392352;28;20135;-50
2022/08/01 04:12:57;;;;;;;0.40;0.40;;;26.00;59.50;;;;;;10393176;28;20042;-50
2022/08/01 04:18:00;;;;;;;1.00;0.30;;;26.00;60.00;;;;;;10397236;28;20041;-56
2022/08/01 04:23:02;;;;;;;1.52;0.40;;;26.00;59.60;;;;;;10398392;28;20179;-43
2022/08/01 04:28:07;;;;;;;0.68;0.40;;;26.00;59.60;;;;;;10396619;28;20132;-53
2022/08/01 04:33:12;;;;;;;0.80;0.40;;;25.90;59.50;;;;;;10399072;28;20470;-50
2022/08/01 04:38:20;;;;;;;0.80;0.40;;;26.00;59.60;;;;;;10398026;28;20923;-51
2022/08/01 04:43:23;;;;;;;2.13;0.45;;;25.90;59.70;;;;;;10398049;28;20049;-51
2022/08/01 04:48:27;;;;;;;0.45;0.30;;;25.90;59.60;;;;;;10397290;28;20039;-51
2022/08/01 04:53:32;;;;;;;1.02;0.43;;;25.90;59.60;;;;;;10396270;28;20053;-51
2022/08/01 04:58:33;;;;;;;1.00;0.60;;;25.90;59.60;;;;;;10397995;28;20049;-55
2022/08/01 05:03:37;;;;;;;0.95;0.40;;;25.90;59.70;;;;;;10397203;28;20164;-49
2022/08/01 05:08:39;;;;;;;0.57;0.43;;;25.90;59.70;;;;;;10396176;28;20142;-51
2022/08/01 05:13:41;;;;;;;0.65;0.30;;;25.90;59.60;;;;;;10395903;28;20459;-51
2022/08/01 05:18:44;;;;;;;1.48;0.40;;;25.90;59.60;;;;;;10396067;28;20060;-53
2022/08/01 05:23:46;;;;;;;0.30;0.30;;;25.80;59.60;;;;;;10394029;28;20041;-51
2022/08/01 05:28:47;;;;;;;0.43;0.38;;;25.90;59.50;;;;;;10389127;28;20077;-53
2022/08/01 05:33:51;;;;;;;0.80;0.30;;;25.90;59.50;;;;;;10394145;28;20136;-53
2022/08/01 05:38:52;;;;;;;5.15;0.82;;;25.80;59.70;;;;;;10387583;28;20513;-54
2022/08/01 05:43:54;;;;;;;0.88;0.50;;;25.80;59.70;;;;;;10393379;28;20275;-49
2022/08/01 05:48:58;;;;;;;1.10;0.57;;;25.80;59.50;;;;;;10391760;28;20676;-55
2022/08/01 05:54:00;;;;;;;0.70;0.50;;;25.80;59.60;;;;;;10392291;28;20072;-50
2022/08/01 05:59:02;;;;;;;4.55;0.88;;;25.80;59.70;;;;;;10392923;28;20041;-54
2022/08/01 06:04:05;;;;;;;1.63;0.82;;;25.80;59.50;;;;;;10386243;28;20081;-47
2022/08/01 06:09:07;;;;;;;6.28;1.40;;;25.80;59.30;;;;;;10394594;28;20608;-49
2022/08/01 06:14:09;;;;;;;6.10;1.42;;;25.80;59.50;;;;;;10394611;28;20132;-55
2022/08/01 06:19:12;;;;;;;3.78;1.20;;;25.90;59.30;;;;;;10393318;28;20061;-52
2022/08/01 06:24:14;;;;;;;7.47;1.45;;;25.90;59.00;;;;;;10393740;28;20462;-44
2022/08/01 06:29:16;;;;;;;2.25;0.93;;;25.90;58.90;;;;;;10392696;28;20644;-46
2022/08/01 06:34:19;;;;;;;4.32;1.17;;;25.90;58.70;;;;;;10386267;28;20038;-49
2022/08/01 06:39:21;;;;;;;8.80;1.50;;;26.00;58.60;;;;;;10393090;28;20124;-49
2022/08/01 06:44:22;;;;;;;1.90;1.00;;;26.00;58.60;;;;;;10392227;28;20525;-49
2022/08/01 06:49:26;;;;;;;6.30;1.50;;;26.00;58.50;;;;;;10391988;28;20054;-54
2022/08/01 06:54:27;;;;;;;3.75;1.33;;;26.00;58.30;;;;;;10391502;28;20582;-53
2022/08/01 06:59:30;;;;;;;5.28;1.15;;;26.00;58.30;;;;;;10391612;28;20075;-52
2022/08/01 07:04:33;;;;;;;3.95;1.08;;;26.00;58.50;;;;;;10393030;28;20107;-51
2022/08/01 07:09:35;;;;;;;3.55;1.10;;;26.00;58.30;;;;;;10392976;28;20051;-47
2022/08/01 07:14:37;;;;;;;7.13;1.55;;;26.00;58.50;;;;;;10392348;28;20144;-53
2022/08/01 07:19:40;;;;;;;4.60;1.10;;;26.00;58.30;;;;;;10392151;28;20478;-53
2022/08/01 07:24:42;;;;;;;2.78;0.90;;;26.10;58.20;;;;;;10392423;28;20043;-53
2022/08/01 07:29:44;;;;;;;3.63;1.35;;;26.10;57.90;;;;;;10391818;28;20041;-50
2022/08/01 07:34:47;;;;;;;6.68;1.15;;;26.10;57.80;;;;;;10390572;28;20139;-47
2022/08/01 07:39:49;;;;;;;4.32;1.23;;;26.20;57.90;;;;;;10390839;28;20156;-49
2022/08/01 07:44:50;;;;;;;4.40;0.90;;;26.20;57.90;;;;;;10391637;28;20604;-49
2022/08/01 07:50:00;;;;;;;3.25;1.00;;;26.30;57.50;;;;;;10391428;28;20255;-57
2022/08/01 07:55:02;;;;;;;5.07;1.10;;;26.40;57.70;;;;;;10389002;28;20157;-51
2022/08/01 08:00:07;;;;;;;3.92;1.17;;;26.30;57.30;;;;;;10391274;28;20124;-51
2022/08/01 08:05:11;;;;;;;4.00;1.10;;;26.40;57.30;;;;;;10392068;28;20085;-52
2022/08/01 08:10:13;;;;;;;10.48;1.65;;;26.40;57.20;;;;;;10390934;28;20053;-51
2022/08/01 08:15:15;;;;;;;2.67;1.05;;;26.50;56.90;;;;;;10391173;28;20053;-47
2022/08/01 08:20:18;;;;;;;8.23;1.45;;;26.50;56.80;;;;;;10390931;28;20379;-47
2022/08/01 08:25:21;;;;;;;5.53;1.17;;;26.50;56.80;;;;;;10391491;28;20085;-49
2022/08/01 08:30:23;;;;;;;2.75;0.80;;;26.50;56.70;;;;;;10389627;28;20037;-52
2022/08/01 08:35:26;;;;;;;1.50;0.70;;;26.50;56.60;;;;;;10384048;28;20054;-53
2022/08/01 08:40:31;;;;;;;9.95;0.93;;;26.50;56.40;;;;;;10390111;28;20096;-51
2022/08/01 08:45:33;;;;;;;4.55;1.20;;;26.50;56.30;;;;;;10383174;28;20052;-52
2022/08/01 08:50:37;;;;;;;3.85;1.63;;;26.50;56.30;;;;;;10389813;28;20187;-52
2022/08/01 08:55:42;;;;;;;3.40;1.00;;;26.50;56.30;;;;;;10382621;28;20041;-52
2022/08/01 09:00:44;;;;;;;5.40;1.42;;;26.50;56.10;;;;;;10389947;28;20076;-52
2022/08/01 09:05:47;;;;;;;9.40;1.55;;;26.50;56.20;;;;;;10395248;28;20056;-49
2022/08/01 09:10:49;;;;;;;4.30;1.20;;;26.50;56.10;;;;;;10396533;28;20844;-52
2022/08/01 09:15:53;;;;;;;5.13;1.30;;;26.50;56.10;;;;;;10397215;28;20041;-49
2022/08/01 09:21:16;;;;;;;3.13;1.10;;;26.50;56.00;;;;;;10398202;28;20045;-52
2022/08/01 09:26:19;;;;;;;2.10;1.00;;;26.60;55.90;;;;;;10380689;28;20049;-51
2022/08/01 09:31:21;;;;;;;2.60;0.80;;;26.70;55.80;;;;;;10389690;28;20128;-49
2022/08/01 09:36:26;;;;;;;3.78;1.10;;;26.60;55.60;;;;;;10395588;28;20409;-51
2022/08/01 09:41:31;;;;;;;2.85;1.00;;;26.70;55.60;;;;;;10395511;28;20061;-52
2022/08/01 09:46:33;;;;;;;4.03;1.20;;;26.70;55.40;;;;;;10396322;28;20053;-49
2022/08/01 09:51:38;;;;;;;2.72;0.80;;;26.70;55.40;;;;;;10386809;28;20145;-48
2022/08/01 09:56:42;;;;;;;4.72;1.00;;;26.70;55.30;;;;;;10393991;28;20139;-47
2022/08/01 10:01:46;;;;;;;2.40;0.82;;;26.80;55.20;;;;;;10395487;28;20466;-49
2022/08/01 10:06:52;;;;;;;4.95;0.98;;;26.80;55.10;;;;;;10395897;28;20545;-52
2022/08/01 10:11:56;;;;;;;4.03;0.82;;;26.80;55.00;;;;;;10395858;28;20115;-53
2022/08/01 10:17:00;;;;;;;2.78;0.70;;;26.80;54.80;;;;;;10385106;28;20722;-47
2022/08/01 10:22:05;;;;;;;3.42;1.10;;;26.90;54.70;;;;;;10393461;28;20063;-53
2022/08/01 10:27:09;;;;;;;2.70;0.80;;;26.90;54.50;;;;;;10393426;28;20868;-51
2022/08/01 10:32:11;;;;;;;3.25;1.00;;;26.90;54.50;;;;;;10395786;28;20992;-51
2022/08/01 10:37:16;;;;;;;4.30;1.10;;;27.00;54.50;;;;;;10388338;28;20465;-51
2022/08/01 10:42:19;;;;;;;4.97;1.40;;;27.00;54.40;;;;;;10394784;28;20104;-49
2022/08/01 10:47:28;;;;;;;2.95;0.82;;;27.00;54.30;;;;;;10384168;28;20156;-45
2022/08/01 10:52:31;;;;;;;5.70;0.95;;;27.00;54.30;;;;;;10394886;28;20053;-50
2022/08/01 10:57:44;;;;;;;12.65;2.30;;;27.10;54.20;;;;;;10388536;28;20045;-51
2022/08/01 11:03:00;;;;;;;8.40;1.35;;;27.20;54.10;;;;;;10392994;28;20515;-51
2022/08/01 11:08:08;;;;;;;3.17;0.75;;;27.20;54.10;;;;;;10395569;28;20478;-53
2022/08/01 11:13:11;;;;;;;1.88;0.70;;;27.20;54.00;;;;;;10378582;28;20263;-50
2022/08/01 11:18:32;;;;;;;2.53;0.70;;;27.30;54.10;;;;;;10392135;28;20049;-52
2022/08/01 11:23:47;;;;;;;;;;;27.30;53.90;;;;;;10385570;28;20485;-48
2022/08/01 11:29:14;;;;;;;5.38;1.30;;;27.40;53.90;;;;;;10383222;28;20032;-46
2022/08/01 11:34:16;;;;;;;6.43;1.40;;;27.50;53.90;;;;;;10387374;28;20367;-50
2022/08/01 11:39:19;;;;;;;4.35;0.80;;;27.50;53.70;;;;;;10385318;28;20071;-50
2022/08/01 11:44:25;;;;;;;2.88;0.90;;;27.50;53.70;;;;;;10380071;28;20505;-49
2022/08/01 11:49:33;;;;;;;8.20;1.80;;;27.50;53.70;;;;;;10372362;28;20052;-51
2022/08/01 11:54:38;;;;;;;2.63;0.77;;;27.60;53.60;;;;;;10386384;28;20433;-51
2022/08/01 11:59:45;;;;;;;4.82;1.13;;;27.60;53.70;;;;;;10384299;28;20425;-50
2022/08/01 12:04:49;;;;;;;3.05;0.65;;;27.60;53.60;;;;;;10388477;28;20484;-47
2022/08/01 12:10:00;;;;;;;7.75;1.27;;;27.70;53.50;;;;;;10390411;28;21507;-52
2022/08/01 12:15:04;;;;;;;2.00;0.90;;;27.70;53.30;;;;;;10390394;28;20476;-49
2022/08/01 12:20:08;;;;;;;3.25;0.80;;;27.70;53.50;;;;;;10390781;28;20127;-49
2022/08/01 12:25:13;;;;;;;3.30;1.00;;;27.70;54.00;;;;;;10389257;28;20408;-49
2022/08/01 12:30:17;;;;;;;3.90;0.80;;;27.70;53.40;;;;;;10390556;28;20113;-50
2022/08/01 12:35:22;;;;;;;4.57;1.00;;;27.80;53.10;;;;;;10389671;28;20049;-50
2022/08/01 12:40:28;;;;;;;1.38;0.60;;;27.90;52.80;;;;;;10397019;28;20093;-49
2022/08/01 12:45:33;;;;;;;3.60;0.80;;;27.90;52.90;;;;;;10398969;28;20064;-50
2022/08/01 12:50:39;;;;;;;4.40;0.95;;;27.90;52.80;;;;;;10399648;28;20054;-47
2022/08/01 12:55:47;;;;;;;4.03;1.08;;;28.00;52.70;;;;;;10389920;28;20041;-50
2022/08/01 13:00:50;;;;;;;3.03;0.80;;;28.00;52.50;;;;;;10394401;28;20128;-48
2022/08/01 13:05:54;;;;;;;4.00;1.35;;;28.00;53.00;;;;;;10386177;28;20172;-47
2022/08/01 13:11:04;;;;;;;1.08;0.55;;;28.00;52.40;;;;;;10392377;28;20486;-48
2022/08/01 13:16:07;;;;;;;1.80;0.65;;;28.10;52.60;;;;;;10396149;28;20091;-48
2022/08/01 13:21:15;;;;;;;1.80;0.70;;;28.20;53.10;;;;;;10384258;28;20045;-48
2022/08/01 13:26:18;;;;;;;3.38;0.90;;;28.20;52.50;;;;;;10392035;28;20045;-48
2022/08/01 13:31:20;;;;;;;4.60;0.90;;;28.20;52.50;;;;;;10385963;28;20191;-52
2022/08/01 13:36:22;;;;;;;3.58;0.50;;;28.30;52.20;;;;;;10396017;28;20120;-46
2022/08/01 13:41:25;;;;;;;1.83;0.60;;;28.40;51.70;;;;;;10395737;28;20129;-50
2022/08/01 13:46:27;;;;;;;1.15;0.50;;;28.40;52.30;;;;;;10395515;28;20044;-50
2022/08/01 13:51:29;;;;;;;3.53;0.52;;;28.40;52.50;;;;;;10394278;28;20049;-51
2022/08/01 13:56:33;;;;;;;1.55;0.40;;;28.60;53.10;;;;;;10395738;28;20495;-49
2022/08/01 14:01:35;;;;;;;1.25;0.73;;;28.50;53.50;;;;;;10395518;28;20168;-49
2022/08/01 14:06:37;;;;;;;1.63;0.70;;;28.50;53.50;;;;;;10394204;28;20057;-46
2022/08/01 14:11:40;;;;;;;1.30;0.50;;;28.60;53.40;;;;;;10395366;28;20124;-51
2022/08/01 14:16:44;;;;;;;2.20;0.40;;;28.70;53.90;;;;;;10395091;28;20382;-50
2022/08/01 14:21:46;;;;;;;1.20;0.50;;;28.60;54.00;;;;;;10394382;28;20049;-50
2022/08/01 14:26:49;;;;;;;1.55;0.60;;;28.70;53.80;;;;;;10393851;28;20045;-51
2022/08/01 14:31:51;;;;;;;2.00;0.70;;;28.80;53.80;;;;;;10387843;28;20084;-44
2022/08/01 14:36:54;;;;;;;0.80;0.45;;;28.80;54.20;;;;;;10388982;28;20069;-49
2022/08/01 14:41:57;;;;;;;2.85;0.70;;;28.90;54.20;;;;;;10394535;28;20057;-48
2022/08/01 14:46:59;;;;;;;0.95;0.35;;;28.90;54.10;;;;;;10394042;28;20045;-50
2022/08/01 14:52:01;;;;;;;8.82;1.08;;;29.00;54.60;;;;;;10393057;28;20156;-49
2022/08/01 14:57:04;;;;;;;0.82;0.45;;;29.00;54.40;;;;;;10393254;28;20039;-49
2022/08/01 15:02:10;;;;;;;1.65;0.70;;;29.10;54.30;;;;;;10391748;28;20171;-48
2022/08/01 15:07:12;;;;;;;0.75;0.40;;;29.10;54.70;;;;;;10392761;28;20399;-53
2022/08/01 15:12:15;;;;;;;3.28;0.80;;;29.10;54.50;;;;;;10391909;28;20136;-49
2022/08/01 15:17:19;;;;;;;2.33;0.60;;;29.20;55.10;;;;;;10392815;28;20126;-51
2022/08/01 15:22:22;;;;;;;5.57;0.80;;;29.30;55.30;;;;;;10393107;28;20132;-52
2022/08/01 15:27:25;;;;;;;1.05;0.40;;;29.40;55.60;;;;;;10392934;28;20060;-53
2022/08/01 15:32:27;;;;;;;1.13;0.40;;;29.50;56.20;;;;;;10392208;28;20448;-50
2022/08/01 15:37:29;;;;;;;3.13;0.55;;;29.50;56.20;;;;;;10391014;28;20053;-45
2022/08/01 15:42:32;;;;;;;1.70;0.57;;;29.60;55.80;;;;;;10390913;28;20049;-48
2022/08/01 15:47:34;;;;;;;4.82;0.60;;;29.70;56.30;;;;;;10392262;28;20131;-47
2022/08/01 15:52:36;;;;;;;0.85;0.30;;;29.80;56.80;;;;;;10392101;28;20687;-50
2022/08/01 15:57:39;;;;;;;1.15;0.47;;;29.90;57.30;;;;;;10384860;28;20054;-46
2022/08/01 16:02:41;;;;;;;2.45;0.68;;;30.00;57.40;;;;;;10391294;28;20446;-50
2022/08/01 16:07:43;;;;;;;3.17;1.05;;;30.10;57.00;;;;;;10383533;28;20059;-47
2022/08/01 16:12:47;;;;;;;1.13;0.60;;;30.10;57.30;;;;;;10386511;28;20104;-49
2022/08/01 16:17:49;;;;;;;1.60;0.60;;;30.20;58.10;;;;;;10386720;28;20053;-49
2022/08/01 16:22:51;;;;;;;3.35;0.82;;;30.20;56.70;;;;;;10393346;28;20055;-48
2022/08/01 16:27:54;;;;;;;1.83;0.90;;;30.30;58.10;;;;;;10398159;28;20116;-52
2022/08/01 16:32:56;;;;;;;1.95;0.90;;;30.30;57.80;;;;;;10396225;28;20405;-48
2022/08/01 16:37:58;;;;;;;1.75;0.88;;;30.50;58.60;;;;;;10395675;28;20681;-48
2022/08/01 16:43:01;;;;;;;4.38;1.52;;;30.50;58.00;;;;;;10383766;28;20115;-47
2022/08/01 16:48:03;;;;;;;5.57;0.65;;;30.50;56.50;;;;;;10398649;28;20429;-45
2022/08/01 16:53:05;;;;;;;3.60;1.90;;;30.40;56.00;;;;;;10398320;28;20087;-49
2022/08/01 16:58:08;;;;;;;2.75;1.10;;;30.50;57.20;;;;;;10398071;28;20037;-46
2022/08/01 17:03:10;;;;;;;3.55;1.50;;;30.50;55.70;;;;;;10399993;28;20041;-47
2022/08/01 17:08:12;;;;;;;3.08;1.25;;;30.50;56.40;;;;;;10398812;28;20095;-45
2022/08/01 17:13:15;;;;;;;3.58;1.63;;;30.50;55.40;;;;;;10397021;28;20048;-46
2022/08/01 17:18:17;;;;;;;3.45;1.42;;;30.60;56.10;;;;;;10396793;28;20461;-50
2022/08/01 17:23:19;;;;;;;2.72;1.13;;;30.70;56.70;;;;;;10398218;28;20049;-49
2022/08/01 17:28:22;;;;;;;4.57;1.13;;;30.60;55.80;;;;;;10395832;28;20049;-50
2022/08/01 17:33:24;;;;;;;4.53;1.35;;;30.80;56.40;;;;;;10397651;28;20038;-52
2022/08/01 17:38:26;;;;;;;8.40;1.38;;;30.70;55.60;;;;;;10397601;28;20825;-50
2022/08/01 17:43:29;;;;;;;2.60;1.58;;;30.80;56.40;;;;;;10398017;28;20055;-46
2022/08/01 17:48:31;;;;;;;5.13;1.75;;;30.70;55.90;;;;;;10398327;28;20063;-49
2022/08/01 17:53:33;;;;;;;2.97;1.30;;;30.80;55.20;;;;;;10397631;28;20182;-43
2022/08/01 17:58:36;;;;;;;3.47;0.90;;;30.80;54.50;;;;;;10397328;28;20061;-47
2022/08/01 18:03:38;;;;;;;2.45;1.30;;;30.70;53.80;;;;;;10398392;28;20085;-47
2022/08/01 18:08:40;;;;;;;5.78;1.20;;;30.80;54.80;;;;;;10395803;28;20118;-47
2022/08/01 18:13:44;;;;;;;4.63;1.15;;;30.80;54.70;;;;;;10389648;28;20073;-48
2022/08/01 18:18:46;;;;;;;1.95;0.90;;;30.90;54.70;;;;;;10395326;28;20083;-45
2022/08/01 18:23:48;;;;;;;3.15;0.82;;;30.80;54.10;;;;;;10396689;28;20051;-46
2022/08/01 18:28:51;;;;;;;2.60;1.13;;;30.80;53.90;;;;;;10396537;28;20214;-46
2022/08/01 18:33:53;;;;;;;4.15;0.90;;;30.90;54.10;;;;;;10390643;28;20144;-44
2022/08/01 18:38:55;;;;;;;2.83;0.73;;;30.90;54.00;;;;;;10393056;28;20462;-41
2022/08/01 18:43:58;;;;;;;3.08;0.88;;;30.90;54.20;;;;;;10380941;28;20049;-48
2022/08/01 18:49:00;;;;;;;3.63;0.93;;;30.90;53.10;;;;;;10394792;28;20143;-47
2022/08/01 18:54:02;;;;;;;1.73;0.88;;;30.90;53.10;;;;;;10394731;28;20136;-50
2022/08/01 18:59:05;;;;;;;4.05;0.85;;;30.90;52.90;;;;;;10389364;28;21009;-45
2022/08/01 19:04:08;;;;;;;1.60;0.77;;;30.90;53.00;;;;;;10391538;28;20539;-44
2022/08/01 19:09:09;;;;;;;4.43;0.90;;;30.80;52.40;;;;;;10393137;28;20045;-41
2022/08/01 19:14:13;;;;;;;4.68;1.00;;;30.80;52.30;;;;;;10394348;28;20111;-42
2022/08/01 19:19:15;;;;;;;4.07;0.95;;;30.70;51.50;;;;;;10392458;28;20081;-42
2022/08/01 19:24:16;;;;;;;6.03;1.10;;;30.70;51.40;;;;;;10392363;28;20052;-44
2022/08/01 19:29:22;;;;;;;5.20;1.23;;;30.60;51.30;;;;;;10390075;28;20122;-43
2022/08/01 19:34:25;;;;;;;6.95;1.35;;;30.60;51.20;;;;;;10389103;28;20049;-41
2022/08/01 19:39:27;;;;;;;7.25;1.40;;;30.60;51.00;;;;;;10390302;28;20049;-42
2022/08/01 19:44:31;;;;;;;4.97;1.42;;;30.50;50.70;;;;;;10388369;28;20089;-41
2022/08/01 19:49:33;;;;;;;11.18;1.83;;;30.50;50.70;;;;;;10389873;28;20580;-44
2022/08/01 19:54:37;;;;;;;6.30;1.60;;;30.50;50.50;;;;;;10389709;28;20203;-43
2022/08/01 19:59:41;;;;;;;7.78;2.42;;;30.40;50.50;;;;;;10389640;28;20417;-44
2022/08/01 20:04:43;;;;;;;8.25;1.30;;;30.40;50.60;;;;;;10388103;28;20128;-43
2022/08/01 20:09:49;;;;;;;5.30;1.30;;;30.40;50.70;;;;;;10388428;28;20050;-42
2022/08/01 20:14:53;;;;;;;5.75;1.52;;;30.40;50.90;;;;;;10389176;28;20588;-41
2022/08/01 20:19:55;;;;;;;6.28;1.25;;;30.40;50.80;;;;;;10389684;28;20053;-44
2022/08/01 20:24:58;;;;;;;4.60;0.90;;;30.30;50.70;;;;;;10388232;28;20187;-48
2022/08/01 20:30:02;;;;;;;3.35;0.98;;;30.30;50.80;;;;;;10388970;28;20530;-43
2022/08/01 20:35:05;;;;;;;3.08;1.05;;;30.30;50.80;;;;;;10389246;28;20076;-42
2022/08/01 20:40:10;;;;;;;4.97;1.10;;;30.30;50.80;;;;;;10389341;28;20053;-42
2022/08/01 20:45:16;;;;;;;1.48;0.80;;;30.20;50.60;;;;;;10387824;28;20699;-44
2022/08/01 20:55:46;;;;;;;5.15;1.17;;;30.20;50.80;;;;;;10389993;28;20144;-43
2022/08/01 21:00:53;;;;;;;2.22;0.63;;;30.20;51.00;;;;;;10395286;28;20472;-44
2022/08/01 21:06:00;;;;;;;2.30;1.00;;;30.20;51.10;;;;;;10399026;28;20045;-46
2022/08/01 21:11:03;;;;;;;2.33;0.95;;;30.10;51.20;;;;;;10398328;28;20132;-48
2022/08/01 21:16:11;;;;;;;1.63;0.57;;;30.10;51.20;;;;;;10398476;28;20091;-44
2022/08/01 21:21:17;;;;;;;1.33;0.70;;;30.00;51.20;;;;;;10397415;28;20132;-42
2022/08/01 21:26:20;;;;;;;2.78;0.70;;;30.00;51.20;;;;;;10395792;28;20144;-47
2022/08/01 21:31:24;;;;;;;2.55;0.85;;;30.00;51.20;;;;;;10397713;28;20077;-45
2022/08/01 21:36:27;;;;;;;2.58;0.98;;;30.00;51.20;;;;;;10398897;28;20037;-47
2022/08/01 21:41:30;;;;;;;2.22;0.88;;;29.90;51.20;;;;;;10397530;28;20058;-42
2022/08/01 21:46:34;;;;;;;3.53;0.98;;;29.90;51.20;;;;;;10375292;28;20379;-42
2022/08/01 21:51:42;;;;;;;3.63;0.70;;;29.90;51.20;;;;;;10395626;28;20089;-44
2022/08/01 21:56:53;;;;;;;2.28;0.73;;;29.90;51.20;;;;;;10397133;28;20046;-46
2022/08/01 22:02:02;;;;;;;1.88;0.60;;;29.80;51.10;;;;;;10396562;28;20049;-45
2022/08/01 22:07:09;;;;;;;2.33;0.75;;;29.80;51.10;;;;;;10395401;28;20045;-45
2022/08/01 22:12:12;;;;;;;2.00;0.70;;;29.80;51.00;;;;;;10393428;28;20458;-43
2022/08/01 22:17:21;;;;;;;3.60;0.70;;;29.80;51.10;;;;;;10393947;28;20438;-48
2022/08/01 22:22:24;;;;;;;1.67;0.80;;;29.70;51.00;;;;;;10394971;28;20619;-45
2022/08/01 22:27:26;;;;;;;2.10;1.45;;;29.60;50.90;;;;;;10391836;28;20042;-44
2022/08/01 22:32:32;;;;;;;1.52;0.68;;;29.70;51.00;;;;;;10393979;28;20041;-43
2022/08/01 22:37:34;;;;;;;1.77;0.70;;;29.60;50.90;;;;;;10394080;28;20433;-46
2022/08/01 22:42:40;;;;;;;1.50;0.77;;;29.60;50.80;;;;;;10393450;28;20441;-43
2022/08/01 22:47:53;;;;;;;2.97;0.77;;;29.50;50.90;;;;;;10392773;28;20199;-48
2022/08/01 22:53:01;;;;;;;3.17;0.57;;;29.50;50.80;;;;;;10395547;28;20045;-43
2022/08/01 22:58:06;;;;;;;1.33;0.57;;;29.50;50.80;;;;;;10393899;28;20057;-43
2022/08/01 23:03:14;;;;;;;1.95;0.70;;;29.40;50.60;;;;;;10394819;28;20119;-43
2022/08/01 23:08:16;;;;;;;2.22;1.00;;;29.40;50.70;;;;;;10395214;28;20059;-42
2022/08/01 23:13:19;;;;;;;2.20;1.02;;;29.30;50.80;;;;;;10393813;28;20038;-45
2022/08/01 23:18:23;;;;;;;1.52;0.70;;;29.30;50.70;;;;;;10394530;28;20061;-44
2022/08/01 23:23:27;;;;;;;0.98;0.60;;;29.20;50.70;;;;;;10393540;28;20147;-42
2022/08/01 23:28:29;;;;;;;0.63;0.60;;;29.20;50.70;;;;;;10391729;28;20517;-43
2022/08/01 23:33:32;;;;;;;1.42;0.70;;;29.20;50.70;;;;;;10393178;28;20539;-43
2022/08/01 23:38:35;;;;;;;1.95;0.70;;;29.10;50.70;;;;;;10392004;28;20059;-45
2022/08/01 23:43:36;;;;;;;1.20;0.60;;;29.00;50.50;;;;;;10393770;28;20053;-46
2022/08/01 23:48:40;;;;;;;3.00;0.75;;;29.00;50.80;;;;;;10392561;28;20336;-48
2022/08/01 23:53:42;;;;;;;1.38;0.60;;;29.00;50.70;;;;;;10393245;28;20049;-47
2022/08/01 23:58:44;;;;;;;1.13;0.60;;;28.90;50.50;;;;;;10391779;28;20652;-45
